createdAt,value
2023-03-11T00:00:18.484Z,66.77
2023-03-11T00:02:47.612Z,68.67
2023-03-11T00:05:19.179Z,70.03
2023-03-11T00:07:47.170Z,74.70
2023-03-11T00:10:16.842Z,76.37
2023-03-11T00:12:46.596Z,70.93
2023-03-11T00:15:15.313Z,77.67
2023-03-11T00:17:43.713Z,68.73
2023-03-11T00:20:18.788Z,67.23
2023-03-11T00:22:46.878Z,68.43
2023-03-11T00:25:15.952Z,73.73
2023-03-11T00:27:43.981Z,64.63
2023-03-11T00:30:15.707Z,73.40
2023-03-11T00:32:44.430Z,69.00
2023-03-11T00:35:14.552Z,66.57
2023-03-11T00:37:43.299Z,67.40
2023-03-11T00:40:14.692Z,69.40
2023-03-11T00:42:42.648Z,70.10
2023-03-11T00:45:11.125Z,69.53
2023-03-11T00:47:40.504Z,68.63
2023-03-11T00:50:12.206Z,72.37
2023-03-11T00:52:40.358Z,69.33
2023-03-11T00:55:09.422Z,68.33
2023-03-11T00:57:37.410Z,64.80
2023-03-11T01:00:06.970Z,67.40
2023-03-11T01:02:36.473Z,69.70
2023-03-11T01:05:06.504Z,73.87
2023-03-11T01:07:34.617Z,69.80
2023-03-11T01:10:02.589Z,72.83
2023-03-11T01:12:30.619Z,72.83
2023-03-11T01:14:58.645Z,69.57
2023-03-11T01:17:26.759Z,66.30
2023-03-11T01:19:54.763Z,65.10
2023-03-11T01:22:24.195Z,60.03
2023-03-11T01:24:52.188Z,64.70
2023-03-11T01:27:20.165Z,65.13
2023-03-11T01:29:48.115Z,52.73
2023-03-11T01:32:16.138Z,51.97
2023-03-11T01:34:44.175Z,57.40
2023-03-11T01:37:12.198Z,60.30
2023-03-11T01:39:41.583Z,58.37
2023-03-11T01:42:09.566Z,58.50
2023-03-11T01:44:40.776Z,58.80
2023-03-11T01:47:35.252Z,67.13
2023-03-11T01:50:04.501Z,62.97
2023-03-11T01:52:32.754Z,54.70
2023-03-11T01:55:02.113Z,50.57
2023-03-11T01:57:30.542Z,52.07
2023-03-11T02:00:01.679Z,56.37
2023-03-11T02:02:33.490Z,57.97
2023-03-11T02:05:03.224Z,60.80
2023-03-11T02:07:31.620Z,56.33
2023-03-11T02:10:02.110Z,55.50
2023-03-11T02:12:35.289Z,54.90
2023-03-11T02:15:05.132Z,53.73
2023-03-11T02:17:33.474Z,55.20
2023-03-11T02:20:13.647Z,58.00
2023-03-11T02:22:43.264Z,59.30
2023-03-11T02:25:19.597Z,64.27
2023-03-11T02:27:50.997Z,61.53
2023-03-11T02:30:20.655Z,58.10
2023-03-11T02:32:49.649Z,55.37
2023-03-11T02:35:19.314Z,64.10
2023-03-11T02:37:48.360Z,59.50
2023-03-11T02:40:48.349Z,58.63
2023-03-11T02:43:20.700Z,58.63
2023-03-11T02:45:49.942Z,59.33
2023-03-11T02:48:18.652Z,59.17
2023-03-11T02:50:48.425Z,61.37
2023-03-11T02:53:16.667Z,60.77
2023-03-11T02:55:44.625Z,55.30
2023-03-11T02:58:12.626Z,58.10
2023-03-11T03:00:42.145Z,59.43
2023-03-11T03:03:10.638Z,61.03
2023-03-11T03:05:40.490Z,55.50
2023-03-11T03:08:08.481Z,64.53
2023-03-11T03:10:36.499Z,62.00
2023-03-11T03:13:04.594Z,59.03
2023-03-11T03:15:32.557Z,58.90
2023-03-11T03:18:01.879Z,54.60
2023-03-11T03:20:29.887Z,54.90
2023-03-11T03:22:58.368Z,51.87
2023-03-11T03:25:26.333Z,54.97
2023-03-11T03:27:54.396Z,62.00
2023-03-11T03:30:22.472Z,64.80
2023-03-11T03:32:50.563Z,63.07
2023-03-11T03:35:20.122Z,66.27
2023-03-11T03:37:48.185Z,63.90
2023-03-11T03:40:16.383Z,66.63
2023-03-11T03:42:44.341Z,62.63
2023-03-11T03:45:12.963Z,65.03
2023-03-11T03:47:40.973Z,67.43
2023-03-11T03:50:13.058Z,63.50
2023-03-11T03:52:42.463Z,64.83
2023-03-11T03:55:11.264Z,66.40
2023-03-11T03:57:39.241Z,66.83
2023-03-11T04:00:10.049Z,62.80
2023-03-11T04:02:38.104Z,62.07
2023-03-11T04:05:07.153Z,65.43
2023-03-11T04:07:35.741Z,64.27
2023-03-11T04:10:05.945Z,60.50
2023-03-11T04:12:33.971Z,59.20
2023-03-11T04:15:01.894Z,64.70
2023-03-11T04:17:29.852Z,64.77
2023-03-11T04:19:57.824Z,64.20
2023-03-11T04:22:25.894Z,58.77
2023-03-11T04:24:53.928Z,58.63
2023-03-11T04:27:23.249Z,65.87
2023-03-11T04:29:51.221Z,66.10
2023-03-11T04:32:19.319Z,58.53
2023-03-11T04:34:47.325Z,63.33
2023-03-11T04:37:17.224Z,64.93
2023-03-11T04:39:45.165Z,64.53
2023-03-11T04:42:13.978Z,65.73
2023-03-11T04:44:43.345Z,68.13
2023-03-11T04:47:11.366Z,70.87
2023-03-11T04:49:39.555Z,59.87
2023-03-11T04:52:07.614Z,60.90
2023-03-11T04:54:35.602Z,64.07
2023-03-11T04:57:03.588Z,61.40
2023-03-11T04:59:31.580Z,61.13
2023-03-11T05:02:00.922Z,64.33
2023-03-11T05:04:28.939Z,62.30
2023-03-11T05:06:56.919Z,62.07
2023-03-11T05:09:24.925Z,56.27
2023-03-11T05:11:52.904Z,63.90
2023-03-11T05:14:20.829Z,68.50
2023-03-11T05:16:48.801Z,66.77
2023-03-11T05:19:41.105Z,67.93
2023-03-11T05:22:09.479Z,65.50
2023-03-11T05:24:37.548Z,65.10
2023-03-11T05:27:05.894Z,64.97
2023-03-11T05:29:34.085Z,57.00
2023-03-11T05:32:02.186Z,59.10
2023-03-11T05:34:31.550Z,59.10
2023-03-11T05:37:03.185Z,55.33
2023-03-11T05:39:31.448Z,59.83
2023-03-11T05:41:59.396Z,59.20
2023-03-11T05:44:27.442Z,54.90
2023-03-11T05:46:55.507Z,53.53
2023-03-11T05:49:24.134Z,60.07
2023-03-11T05:51:55.279Z,56.27
2023-03-11T05:54:24.778Z,63.27
2023-03-11T05:56:52.797Z,61.00
2023-03-11T05:59:20.901Z,58.57
2023-03-11T06:01:48.946Z,53.27
2023-03-11T06:04:17.029Z,50.63
2023-03-11T06:06:45.036Z,57.53
2023-03-11T06:09:15.112Z,56.73
2023-03-11T06:11:43.811Z,58.53
2023-03-11T06:14:13.584Z,62.83
2023-03-11T06:16:41.731Z,59.70
2023-03-11T06:19:09.875Z,61.77
2023-03-11T06:21:38.148Z,59.50
2023-03-11T06:24:06.738Z,58.93
2023-03-11T06:26:36.107Z,54.13
2023-03-11T06:29:04.071Z,65.67
2023-03-11T06:31:32.085Z,65.33
2023-03-11T06:34:00.327Z,66.40
2023-03-11T06:36:28.379Z,67.90
2023-03-11T06:38:56.333Z,67.60
2023-03-11T06:41:24.393Z,67.30
2023-03-11T06:43:53.721Z,68.10
2023-03-11T06:46:23.327Z,60.57
2023-03-11T06:48:52.333Z,65.93
2023-03-11T06:51:21.616Z,65.03
2023-03-11T06:53:50.394Z,66.33
2023-03-11T06:56:18.409Z,67.63
2023-03-11T06:58:46.725Z,66.67
2023-03-11T07:01:18.725Z,67.47
2023-03-11T07:03:47.435Z,66.67
2023-03-11T07:06:16.469Z,67.50
2023-03-11T07:08:44.673Z,63.63
2023-03-11T07:11:15.550Z,69.57
2023-03-11T07:13:43.902Z,62.93
2023-03-11T07:16:15.616Z,65.93
2023-03-11T07:18:46.384Z,61.83
2023-03-11T07:21:16.925Z,62.23
2023-03-11T07:23:45.197Z,65.77
2023-03-11T07:26:15.485Z,64.27
2023-03-11T07:28:44.575Z,65.60
2023-03-11T07:31:14.685Z,57.17
2023-03-11T07:33:44.129Z,60.87
2023-03-11T07:36:14.894Z,64.77
2023-03-11T07:38:43.688Z,71.23
2023-03-11T07:41:12.683Z,55.40
2023-03-11T07:43:41.680Z,66.87
2023-03-11T07:46:11.898Z,60.87
2023-03-11T07:48:41.063Z,62.07
2023-03-11T07:51:14.205Z,61.20
2023-03-11T07:53:42.434Z,59.93
2023-03-11T07:56:11.888Z,56.83
2023-03-11T07:58:40.326Z,65.10
2023-03-11T08:01:10.627Z,68.20
2023-03-11T08:03:39.446Z,63.50
2023-03-11T08:06:15.113Z,61.20
2023-03-11T08:08:43.558Z,42.93
2023-03-11T08:11:14.665Z,38.37
2023-03-11T08:13:43.432Z,4.80
2023-03-11T08:16:13.983Z,4.07
2023-03-11T08:18:42.258Z,3.17
2023-03-11T08:21:12.470Z,3.93
2023-03-11T08:23:43.119Z,3.40
2023-03-11T08:26:15.646Z,4.17
2023-03-11T08:28:44.811Z,7.67
2023-03-11T08:31:14.459Z,6.80
2023-03-11T08:33:42.850Z,5.53
2023-03-11T08:36:11.106Z,13.43
2023-03-11T08:38:39.452Z,5.53
2023-03-11T08:41:09.114Z,7.23
2023-03-11T08:43:37.139Z,7.37
2023-03-11T08:46:07.596Z,6.40
2023-03-11T08:48:37.271Z,4.87
2023-03-11T08:51:10.719Z,8.17
2023-03-11T08:53:38.852Z,7.07
2023-03-11T08:56:09.015Z,9.07
2023-03-11T08:58:37.539Z,5.40
2023-03-11T09:01:06.012Z,8.20
2023-03-11T09:03:35.298Z,59.80
2023-03-11T09:06:04.780Z,75.20
2023-03-11T09:08:32.951Z,74.33
2023-03-11T09:11:01.032Z,83.00
2023-03-11T09:13:30.561Z,73.67
2023-03-11T09:15:58.644Z,80.00
2023-03-11T09:18:27.316Z,67.30
2023-03-11T09:20:58.232Z,77.43
2023-03-11T09:23:26.400Z,23.23
2023-03-11T09:25:54.350Z,80.73
2023-03-11T09:28:22.321Z,82.73
2023-03-11T09:30:51.746Z,9.13
2023-03-11T09:33:19.831Z,24.20
2023-03-11T09:35:47.842Z,21.77
2023-03-11T09:38:15.898Z,63.60
2023-03-11T09:40:52.897Z,63.10
2023-03-11T09:43:31.977Z,82.93
2023-03-11T09:46:10.616Z,81.50
2023-03-11T09:48:44.097Z,70.07
2023-03-11T09:51:17.192Z,75.07
2023-03-11T09:53:46.320Z,70.77
2023-03-11T09:56:17.514Z,88.70
2023-03-11T09:58:47.894Z,96.87
2023-03-11T10:01:25.339Z,51.23
2023-03-11T10:03:55.968Z,41.80
2023-03-11T10:06:25.575Z,53.00
2023-03-11T10:09:01.568Z,54.57
2023-03-11T10:11:55.929Z,66.13
2023-03-11T10:14:45.051Z,101.67
2023-03-11T10:17:23.961Z,105.83
2023-03-11T10:19:59.466Z,115.90
2023-03-11T10:22:33.868Z,111.53
2023-03-11T10:25:10.490Z,117.03
2023-03-11T10:27:46.052Z,48.83
2023-03-11T10:30:21.056Z,139.73
2023-03-11T10:32:55.982Z,132.77
2023-03-11T10:35:27.724Z,131.53
2023-03-11T10:37:59.457Z,116.50
2023-03-11T10:40:32.985Z,153.67
2023-03-11T10:43:04.232Z,141.83
2023-03-11T10:45:38.112Z,149.67
2023-03-11T10:48:12.328Z,151.50
2023-03-11T10:50:48.284Z,169.53
2023-03-11T10:53:17.952Z,170.80
2023-03-11T10:55:50.947Z,169.47
2023-03-11T10:58:21.105Z,161.87
2023-03-11T11:01:01.880Z,168.17
2023-03-11T11:03:31.666Z,161.83
2023-03-11T11:06:03.178Z,168.27
2023-03-11T11:08:31.560Z,164.87
2023-03-11T11:11:01.592Z,150.67
2023-03-11T11:13:31.322Z,133.77
2023-03-11T11:16:01.614Z,129.87
2023-03-11T11:18:34.430Z,133.00
2023-03-11T11:21:05.644Z,138.30
2023-03-11T11:23:41.819Z,141.93
2023-03-11T11:26:17.958Z,129.00
2023-03-11T11:28:46.396Z,145.43
2023-03-11T11:31:26.302Z,148.07
2023-03-11T11:33:57.357Z,159.73
2023-03-11T11:36:30.693Z,150.93
2023-03-11T11:39:02.848Z,150.47
2023-03-11T11:41:33.360Z,153.87
2023-03-11T11:44:05.576Z,160.53
2023-03-11T11:46:39.623Z,152.43
2023-03-11T11:49:18.851Z,157.53
2023-03-11T11:51:51.922Z,141.90
2023-03-11T11:54:26.471Z,154.37
2023-03-11T11:56:56.517Z,152.13
2023-03-11T11:59:25.525Z,164.63
2023-03-11T12:02:03.837Z,164.57
2023-03-11T12:04:49.266Z,157.33
2023-03-11T12:07:33.245Z,157.00
2023-03-11T12:10:22.645Z,161.23
2023-03-11T12:13:11.021Z,160.03
2023-03-11T12:15:42.177Z,153.03
2023-03-11T12:18:17.714Z,155.17
2023-03-11T12:20:50.389Z,159.73
2023-03-11T12:23:20.554Z,154.97
2023-03-11T12:26:01.589Z,156.07
2023-03-11T12:28:39.043Z,147.57
2023-03-11T12:31:10.138Z,146.73
2023-03-11T12:33:41.787Z,131.97
2023-03-11T12:36:24.619Z,134.97
2023-03-11T12:38:54.624Z,140.10
2023-03-11T12:41:36.875Z,135.63
2023-03-11T12:44:06.575Z,140.33
2023-03-11T12:47:14.018Z,140.93
2023-03-11T12:49:44.081Z,141.43
2023-03-11T12:52:24.314Z,137.87
2023-03-11T12:55:38.713Z,141.33
2023-03-11T12:58:34.856Z,143.20
2023-03-11T13:01:34.386Z,142.23
2023-03-11T13:04:26.871Z,142.93
2023-03-11T13:07:31.263Z,142.90
2023-03-11T13:10:06.877Z,141.47
2023-03-11T13:12:42.574Z,135.07
2023-03-11T13:15:36.402Z,130.60
2023-03-11T13:18:15.840Z,126.70
2023-03-11T13:20:55.982Z,135.20
2023-03-11T13:23:33.786Z,126.43
2023-03-11T13:26:41.625Z,132.53
2023-03-11T13:29:54.174Z,138.10
2023-03-11T13:32:51.630Z,131.10
2023-03-11T13:35:34.854Z,136.93
2023-03-11T13:38:21.799Z,137.07
2023-03-11T13:40:52.495Z,137.30
2023-03-11T13:43:22.866Z,132.47
2023-03-11T13:45:54.848Z,129.63
2023-03-11T13:48:30.025Z,132.80
2023-03-11T13:51:03.290Z,134.53
2023-03-11T13:53:35.608Z,132.53
2023-03-11T13:56:03.640Z,133.17
2023-03-11T13:58:31.622Z,135.33
2023-03-11T14:01:01.923Z,112.97
2023-03-11T14:03:38.056Z,112.07
2023-03-11T14:06:09.726Z,108.03
2023-03-11T14:08:39.541Z,102.37
2023-03-11T14:11:18.099Z,104.87
2023-03-11T14:13:47.927Z,113.57
2023-03-11T14:16:18.466Z,118.90
2023-03-11T14:18:50.153Z,110.13
2023-03-11T14:21:21.014Z,119.10
2023-03-11T14:23:50.676Z,120.63
2023-03-11T14:26:21.663Z,115.50
2023-03-11T14:28:52.571Z,112.17
2023-03-11T14:31:30.002Z,118.83
2023-03-11T14:34:04.417Z,113.07
2023-03-11T14:36:41.485Z,108.83
2023-03-11T14:39:32.840Z,104.13
2023-03-11T14:42:06.833Z,103.57
2023-03-11T14:44:37.940Z,99.40
2023-03-11T14:47:11.862Z,99.63
2023-03-11T14:49:41.826Z,105.00
2023-03-11T14:52:17.730Z,107.43
2023-03-11T14:54:46.797Z,104.20
2023-03-11T14:57:23.661Z,103.10
2023-03-11T14:59:53.538Z,102.10
2023-03-11T15:02:37.699Z,102.27
2023-03-11T15:05:15.297Z,109.93
2023-03-11T15:07:43.540Z,105.77
2023-03-11T15:10:12.819Z,108.53
2023-03-11T15:12:43.463Z,105.17
2023-03-11T15:15:24.874Z,105.10
2023-03-11T15:17:58.447Z,99.30
2023-03-11T15:20:31.459Z,99.97
2023-03-11T15:23:04.275Z,99.23
2023-03-11T15:25:34.486Z,89.40
2023-03-11T15:28:20.532Z,93.90
2023-03-11T15:30:48.598Z,90.33
2023-03-11T15:33:25.754Z,97.67
2023-03-11T15:35:55.184Z,88.50
2023-03-11T15:38:25.641Z,94.43
2023-03-11T15:40:55.675Z,93.17
2023-03-11T15:43:28.515Z,98.30
2023-03-11T15:45:58.617Z,96.00
2023-03-11T15:48:27.925Z,101.50
2023-03-11T15:50:58.867Z,97.13
2023-03-11T15:53:28.317Z,94.10
2023-03-11T15:56:06.549Z,97.33
2023-03-11T15:58:35.417Z,88.97
2023-03-11T16:01:04.063Z,92.07
2023-03-11T16:03:33.171Z,93.37
2023-03-11T16:06:02.616Z,98.00
2023-03-11T16:08:30.657Z,100.90
2023-03-11T16:10:59.116Z,96.10
2023-03-11T16:13:27.088Z,102.30
2023-03-11T16:15:55.116Z,91.60
2023-03-11T16:18:24.217Z,90.47
2023-03-11T16:20:54.220Z,86.77
2023-03-11T16:23:26.224Z,91.97
2023-03-11T16:25:57.430Z,94.10
2023-03-11T16:28:25.488Z,100.47
2023-03-11T16:30:53.614Z,96.27
2023-03-11T16:33:21.665Z,92.67
2023-03-11T16:35:50.051Z,95.73
2023-03-11T16:38:19.429Z,84.60
2023-03-11T16:40:57.144Z,93.97
2023-03-11T16:43:25.118Z,89.30
2023-03-11T16:45:54.715Z,77.13
2023-03-11T16:48:23.048Z,78.87
2023-03-11T16:50:51.705Z,73.17
2023-03-11T16:53:19.680Z,68.33
2023-03-11T16:55:49.415Z,69.40
2023-03-11T16:58:17.806Z,73.60
2023-03-11T17:00:46.398Z,71.27
2023-03-11T17:03:15.391Z,77.50
2023-03-11T17:05:43.833Z,76.53
2023-03-11T17:08:11.974Z,76.70
2023-03-11T17:10:42.772Z,77.73
2023-03-11T17:13:14.172Z,79.73
2023-03-11T17:15:44.490Z,86.17
2023-03-11T17:18:13.468Z,80.50
2023-03-11T17:20:43.448Z,82.67
2023-03-11T17:23:11.527Z,76.03
2023-03-11T17:25:42.202Z,82.13
2023-03-11T17:28:11.832Z,74.33
2023-03-11T17:30:43.872Z,75.83
2023-03-11T17:33:12.267Z,79.80
2023-03-11T17:35:40.822Z,94.57
2023-03-11T17:38:09.101Z,92.97
2023-03-11T17:40:38.122Z,86.67
2023-03-11T17:43:06.124Z,91.80
2023-03-11T17:45:35.467Z,90.93
2023-03-11T17:48:03.481Z,120.93
2023-03-11T17:50:31.497Z,96.93
2023-03-11T17:52:59.483Z,88.60
2023-03-11T17:55:27.609Z,87.13
2023-03-11T17:57:55.591Z,74.07
2023-03-11T18:00:23.828Z,89.00
2023-03-11T18:02:53.322Z,96.37
2023-03-11T18:05:22.132Z,94.47
2023-03-11T18:07:50.354Z,92.57
2023-03-11T18:10:18.526Z,101.30
2023-03-11T18:12:47.512Z,92.93
2023-03-11T18:15:19.315Z,92.43
2023-03-11T18:17:48.198Z,84.83
2023-03-11T18:20:18.246Z,89.17
2023-03-11T18:22:47.137Z,87.80
2023-03-11T18:25:15.355Z,78.50
2023-03-11T18:27:43.426Z,76.13
2023-03-11T18:30:13.115Z,85.37
2023-03-11T18:32:41.342Z,86.20
2023-03-11T18:35:10.256Z,71.57
2023-03-11T18:37:39.597Z,81.73
2023-03-11T18:40:08.799Z,80.37
2023-03-11T18:42:36.885Z,86.00
2023-03-11T18:45:05.557Z,93.43
2023-03-11T18:47:35.823Z,92.30
2023-03-11T18:50:04.372Z,86.97
2023-03-11T18:52:32.385Z,87.00
2023-03-11T18:55:01.803Z,88.67
2023-03-11T18:57:29.823Z,90.47
2023-03-11T18:59:57.909Z,82.73
2023-03-11T19:02:26.175Z,79.10
2023-03-11T19:04:54.431Z,86.70
2023-03-11T19:07:22.656Z,84.07
2023-03-11T19:09:50.907Z,78.33
2023-03-11T19:12:20.220Z,77.63
2023-03-11T19:14:48.235Z,83.57
2023-03-11T19:17:18.251Z,83.47
2023-03-11T19:19:46.488Z,87.57
2023-03-11T19:22:14.446Z,76.87
2023-03-11T19:24:42.621Z,84.80
2023-03-11T19:27:10.636Z,83.10
2023-03-11T19:29:39.937Z,84.93
2023-03-11T19:32:08.022Z,83.00
2023-03-11T19:34:36.251Z,84.87
2023-03-11T19:37:04.223Z,80.70
2023-03-11T19:39:32.209Z,98.53
2023-03-11T19:42:00.174Z,93.33
2023-03-11T19:44:28.146Z,86.47
2023-03-11T19:46:57.495Z,80.57
2023-03-11T19:49:25.512Z,74.30
2023-03-11T19:51:55.909Z,83.83
2023-03-11T19:54:23.882Z,48.83
2023-03-11T19:56:51.879Z,67.17
2023-03-11T19:59:19.920Z,71.93
2023-03-11T20:01:48.124Z,62.03
2023-03-11T20:04:17.656Z,60.73
2023-03-11T20:06:46.092Z,75.67
2023-03-11T20:09:16.006Z,65.93
2023-03-11T20:11:45.579Z,56.87
2023-03-11T20:14:14.397Z,61.77
2023-03-11T20:16:42.551Z,69.70
2023-03-11T20:19:10.577Z,65.57
2023-03-11T20:21:40.905Z,65.40
2023-03-11T20:24:09.937Z,63.93
2023-03-11T20:26:38.755Z,66.83
2023-03-11T20:29:07.154Z,67.73
2023-03-11T20:31:36.384Z,71.60
2023-03-11T20:34:04.778Z,91.63
2023-03-11T20:36:34.435Z,69.57
2023-03-11T20:39:07.884Z,73.73
2023-03-11T20:41:39.759Z,66.20
2023-03-11T20:44:09.546Z,68.90
2023-03-11T20:46:37.641Z,69.20
2023-03-11T20:49:05.670Z,74.87
2023-03-11T20:51:33.929Z,80.93
2023-03-11T20:54:03.496Z,79.73
2023-03-11T20:56:31.610Z,73.63
2023-03-11T20:59:00.951Z,71.87
2023-03-11T21:01:30.469Z,80.23
2023-03-11T21:04:00.481Z,69.03
2023-03-11T21:06:30.827Z,73.00
2023-03-11T21:09:00.790Z,73.17
2023-03-11T21:11:30.299Z,75.40
2023-03-11T21:13:58.708Z,72.43
2023-03-11T21:16:28.111Z,78.43
2023-03-11T21:18:56.283Z,71.37
2023-03-11T21:21:24.778Z,71.43
2023-03-11T21:23:52.844Z,83.53
2023-03-11T21:26:20.845Z,82.93
2023-03-11T21:28:50.360Z,87.17
2023-03-11T21:31:20.342Z,86.17
2023-03-11T21:33:49.726Z,79.33
2023-03-11T21:36:18.157Z,80.73
2023-03-11T21:38:47.227Z,82.30
2023-03-11T21:41:17.613Z,80.60
2023-03-11T21:43:46.416Z,84.70
2023-03-11T21:46:19.098Z,84.77
2023-03-11T21:48:47.802Z,84.83
2023-03-11T21:51:16.228Z,81.17
2023-03-11T21:53:44.398Z,81.63
2023-03-11T21:56:13.326Z,83.37
2023-03-11T21:58:42.170Z,82.03
2023-03-11T22:01:11.141Z,84.70
2023-03-11T22:03:41.046Z,81.50
2023-03-11T22:06:12.188Z,91.30
2023-03-11T22:08:40.993Z,89.00
2023-03-11T22:11:10.696Z,84.37
2023-03-11T22:13:38.729Z,82.50
2023-03-11T22:16:08.155Z,82.87
2023-03-11T22:18:36.424Z,86.53
2023-03-11T22:21:08.185Z,83.10
2023-03-11T22:23:38.164Z,81.30
2023-03-11T22:26:06.379Z,85.57
2023-03-11T22:28:34.584Z,86.20
2023-03-11T22:31:07.590Z,77.10
2023-03-11T22:33:35.692Z,69.20
2023-03-11T22:36:05.714Z,81.93
2023-03-11T22:38:34.217Z,81.17
2023-03-11T22:41:04.852Z,82.20
2023-03-11T22:43:32.909Z,77.10
2023-03-11T22:46:02.329Z,81.63
2023-03-11T22:48:30.521Z,81.13
2023-03-11T22:50:58.544Z,80.27
2023-03-11T22:53:27.932Z,76.83
2023-03-11T22:55:55.932Z,81.97
2023-03-11T22:58:23.896Z,78.83
2023-03-11T23:00:51.919Z,78.73
2023-03-11T23:03:19.946Z,78.67
2023-03-11T23:05:47.982Z,80.37
2023-03-11T23:08:17.233Z,81.30
2023-03-11T23:10:50.889Z,85.53
2023-03-11T23:13:18.902Z,70.73
2023-03-11T23:15:48.212Z,87.63
2023-03-11T23:18:17.175Z,81.37
2023-03-11T23:20:45.712Z,80.47
2023-03-11T23:23:14.751Z,77.57
2023-03-11T23:25:45.886Z,82.47
2023-03-11T23:28:13.935Z,73.90
2023-03-11T23:30:42.230Z,87.23
2023-03-11T23:33:10.333Z,89.37
2023-03-11T23:35:42.360Z,83.67
2023-03-11T23:38:11.134Z,68.93
2023-03-11T23:40:41.688Z,73.97
2023-03-11T23:43:11.016Z,72.27
2023-03-11T23:45:38.953Z,76.03
2023-03-11T23:48:07.240Z,69.93
2023-03-11T23:50:35.181Z,72.83
2023-03-11T23:53:03.180Z,76.80
2023-03-11T23:55:31.258Z,77.23
2023-03-11T23:57:59.281Z,78.17
